createdAt,value
2022-11-30T01:01:49.140Z,2.63
2022-11-30T01:04:21.294Z,2.37
2022-11-30T01:06:53.832Z,2.20
2022-11-30T01:09:26.001Z,2.10
2022-11-30T01:11:57.165Z,1.93
2022-11-30T01:14:28.931Z,1.67
2022-11-30T01:17:02.489Z,2.17
2022-11-30T01:19:38.745Z,2.20
2022-11-30T01:22:10.560Z,2.00
2022-11-30T01:24:42.329Z,1.93
2022-11-30T01:27:17.124Z,2.03
2022-11-30T01:29:50.944Z,1.63
2022-11-30T01:32:25.162Z,1.80
2022-11-30T01:34:56.926Z,1.83
2022-11-30T01:37:28.735Z,2.00
2022-11-30T01:40:01.406Z,1.83
2022-11-30T01:42:34.027Z,1.80
2022-11-30T01:45:07.813Z,1.73
2022-11-30T01:47:43.376Z,1.90
2022-11-30T01:50:19.389Z,1.70
2022-11-30T01:52:53.712Z,1.80
2022-11-30T01:55:29.114Z,1.87
2022-11-30T01:58:04.856Z,1.70
2022-11-30T02:00:37.015Z,1.50
2022-11-30T02:03:16.300Z,1.90
2022-11-30T02:05:49.700Z,1.70
2022-11-30T02:08:23.759Z,1.70
2022-11-30T02:11:02.320Z,1.70
2022-11-30T02:14:03.055Z,1.60
2022-11-30T02:16:45.059Z,1.50
2022-11-30T02:19:49.518Z,1.50
2022-11-30T02:22:37.264Z,1.67
2022-11-30T02:25:17.813Z,1.60
2022-11-30T02:28:12.945Z,1.70
2022-11-30T02:30:51.606Z,1.63
2022-11-30T02:33:33.035Z,1.63
2022-11-30T02:36:19.721Z,1.40
2022-11-30T02:38:52.249Z,1.27
2022-11-30T02:41:25.819Z,1.50
2022-11-30T02:43:58.570Z,1.33
2022-11-30T02:46:48.415Z,1.40
2022-11-30T02:49:28.930Z,1.50
2022-11-30T02:52:11.207Z,1.40
2022-11-30T02:54:43.452Z,1.40
2022-11-30T02:57:16.104Z,1.67
2022-11-30T02:59:49.587Z,1.37
2022-11-30T03:02:30.269Z,1.30
2022-11-30T03:05:06.681Z,1.60
2022-11-30T03:07:46.019Z,1.30
2022-11-30T03:10:18.253Z,1.50
2022-11-30T03:12:55.639Z,1.27
2022-11-30T03:15:32.972Z,1.40
2022-11-30T03:18:12.429Z,1.40
2022-11-30T03:20:48.289Z,1.47
2022-11-30T03:23:21.216Z,1.70
2022-11-30T03:25:57.489Z,1.57
2022-11-30T03:28:29.341Z,1.40
2022-11-30T03:31:02.679Z,1.70
2022-11-30T03:33:37.462Z,1.43
2022-11-30T03:36:12.940Z,1.47
2022-11-30T03:38:50.446Z,1.20
2022-11-30T03:41:22.434Z,1.70
2022-11-30T03:44:04.311Z,1.30
2022-11-30T03:46:45.391Z,1.30
2022-11-30T03:49:20.403Z,1.40
2022-11-30T03:51:52.260Z,1.47
2022-11-30T03:54:23.928Z,1.43
2022-11-30T03:56:56.356Z,1.40
2022-11-30T03:59:39.345Z,1.23
2022-11-30T04:02:12.085Z,1.60
2022-11-30T04:04:49.059Z,1.50
2022-11-30T04:07:21.316Z,1.47
2022-11-30T04:09:55.386Z,1.50
2022-11-30T04:12:26.840Z,1.33
2022-11-30T04:14:58.549Z,1.60
2022-11-30T04:17:30.687Z,1.40
2022-11-30T04:20:04.092Z,1.50
2022-11-30T04:22:40.796Z,1.53
2022-11-30T04:25:12.715Z,1.70
2022-11-30T04:27:44.148Z,1.63
2022-11-30T04:30:17.128Z,1.70
2022-11-30T04:32:48.599Z,1.60
2022-11-30T04:35:26.265Z,2.03
2022-11-30T04:37:59.272Z,2.07
2022-11-30T04:40:31.370Z,2.00
2022-11-30T04:43:02.982Z,2.00
2022-11-30T04:45:35.800Z,1.90
2022-11-30T04:48:08.529Z,1.80
2022-11-30T04:50:42.622Z,2.00
2022-11-30T04:53:16.218Z,2.20
2022-11-30T04:55:47.911Z,1.97
2022-11-30T04:58:20.234Z,2.00
2022-11-30T05:00:52.960Z,2.00
2022-11-30T05:03:25.173Z,1.90
2022-11-30T05:06:01.733Z,1.80
2022-11-30T05:08:32.793Z,2.00
2022-11-30T05:11:03.834Z,2.00
2022-11-30T05:13:34.907Z,1.90
2022-11-30T05:16:05.993Z,1.73
2022-11-30T05:18:37.026Z,2.10
2022-11-30T05:21:10.835Z,1.40
2022-11-30T05:23:41.868Z,1.50
2022-11-30T05:26:14.455Z,1.57
2022-11-30T05:28:45.503Z,1.80
2022-11-30T05:31:17.276Z,1.90
2022-11-30T05:33:52.653Z,1.77
2022-11-30T05:36:26.302Z,2.10
2022-11-30T05:38:57.200Z,2.07
2022-11-30T05:41:28.296Z,1.80
2022-11-30T05:43:59.635Z,1.60
2022-11-30T05:46:30.881Z,1.80
2022-11-30T05:49:02.352Z,1.70
2022-11-30T05:51:35.496Z,1.80
2022-11-30T05:54:07.668Z,1.90
2022-11-30T05:56:39.026Z,1.60
2022-11-30T05:59:10.153Z,1.80
2022-11-30T06:01:41.551Z,1.50
2022-11-30T06:04:12.835Z,1.37
2022-11-30T06:06:45.804Z,1.30
2022-11-30T06:09:18.371Z,1.40
2022-11-30T06:11:49.487Z,1.80
2022-11-30T06:14:20.595Z,0.97
2022-11-30T06:16:51.797Z,1.00
2022-11-30T06:19:22.969Z,1.40
2022-11-30T06:21:56.377Z,1.30
2022-11-30T06:24:27.544Z,1.27
2022-11-30T06:26:58.697Z,0.83
2022-11-30T06:29:29.810Z,1.10
2022-11-30T06:32:01.154Z,1.00
2022-11-30T06:34:33.986Z,0.97
2022-11-30T06:37:07.662Z,1.03
2022-11-30T06:40:04.809Z,1.00
2022-11-30T06:42:31.271Z,1.07
2022-11-30T06:45:02.445Z,1.10
2022-11-30T06:47:33.672Z,1.20
2022-11-30T06:50:05.160Z,1.20
2022-11-30T06:52:39.690Z,1.33
2022-11-30T06:55:11.605Z,1.30
2022-11-30T06:57:42.711Z,1.27
2022-11-30T07:00:23.381Z,1.27
2022-11-30T07:02:55.216Z,1.40
2022-11-30T07:05:26.821Z,1.50
2022-11-30T07:08:01.362Z,1.20
2022-11-30T07:10:32.868Z,1.60
2022-11-30T07:13:04.792Z,1.50
2022-11-30T07:15:36.234Z,1.50
2022-11-30T07:18:07.848Z,1.43
2022-11-30T07:20:40.472Z,1.57
2022-11-30T07:23:48.462Z,1.33
2022-11-30T07:26:25.736Z,1.37
2022-11-30T07:29:00.908Z,1.40
2022-11-30T07:31:36.246Z,1.80
2022-11-30T07:34:10.517Z,1.27
2022-11-30T07:36:41.655Z,1.40
2022-11-30T07:39:16.829Z,1.17
2022-11-30T07:41:48.413Z,1.00
2022-11-30T07:44:19.511Z,1.10
2022-11-30T07:46:51.781Z,1.07
2022-11-30T07:49:23.646Z,1.30
2022-11-30T07:51:55.760Z,1.00
2022-11-30T07:54:29.957Z,1.23
2022-11-30T07:57:01.640Z,1.20
2022-11-30T07:59:33.865Z,1.30
2022-11-30T08:02:05.847Z,1.30
2022-11-30T08:04:40.130Z,1.40
2022-11-30T08:07:11.686Z,1.03
2022-11-30T08:09:46.136Z,1.30
2022-11-30T08:12:17.802Z,1.20
2022-11-30T08:15:18.244Z,1.20
2022-11-30T08:17:40.582Z,1.20
2022-11-30T08:20:13.558Z,1.37
2022-11-30T08:22:44.595Z,1.20
2022-11-30T08:25:17.734Z,1.20
2022-11-30T08:27:48.666Z,1.27
2022-11-30T08:30:20.119Z,1.23
2022-11-30T08:32:51.269Z,1.10
2022-11-30T08:35:22.451Z,1.10
2022-11-30T08:38:03.314Z,1.30
2022-11-30T08:40:36.832Z,1.00
2022-11-30T08:43:08.986Z,1.00
2022-11-30T08:45:40.937Z,1.00
2022-11-30T08:48:12.115Z,3.40
